createdAt,value
2019-03-27T00:01:32.406Z,0.00
2019-03-27T00:02:25.044Z,0.00
2019-03-27T00:07:04.570Z,0.00
2019-03-27T00:09:06.853Z,0.00
2019-03-27T00:20:40.553Z,0.00
2019-03-27T00:22:37.079Z,0.00
2019-03-27T00:23:40.312Z,0.00
2019-03-27T00:24:40.498Z,0.00
2019-03-27T00:25:36.434Z,0.00
2019-03-27T00:26:38.288Z,0.00
2019-03-27T00:27:38.004Z,0.00
2019-03-27T00:28:36.926Z,0.00
2019-03-27T00:29:40.547Z,0.00
2019-03-27T00:30:39.545Z,0.00
2019-03-27T00:31:38.868Z,0.00
2019-03-27T00:32:40.848Z,0.00
2019-03-27T00:33:36.361Z,0.00
2019-03-27T00:34:40.451Z,0.00
2019-03-27T00:35:35.537Z,0.00
2019-03-27T00:36:35.297Z,0.00
2019-03-27T00:37:35.276Z,0.00
2019-03-27T00:38:35.144Z,0.00
2019-03-27T00:39:35.102Z,0.00
2019-03-27T00:40:34.987Z,0.00
2019-03-27T00:41:34.934Z,0.00
2019-03-27T00:42:34.931Z,0.00
2019-03-27T00:43:34.731Z,0.00
2019-03-27T00:44:34.654Z,0.00
2019-03-27T00:45:34.634Z,0.00
2019-03-27T00:46:34.548Z,0.00
2019-03-27T00:47:34.409Z,0.00
2019-03-27T00:48:34.363Z,0.00
2019-03-27T00:49:34.251Z,0.00
2019-03-27T00:50:34.205Z,0.00
2019-03-27T00:51:34.085Z,0.00
2019-03-27T00:52:34.026Z,0.00
2019-03-27T00:53:33.939Z,0.00
2019-03-27T00:54:33.885Z,0.00
2019-03-27T00:55:33.759Z,0.00
2019-03-27T00:56:33.725Z,0.00
2019-03-27T00:57:33.611Z,0.00
2019-03-27T00:58:33.555Z,0.00
2019-03-27T00:59:33.475Z,0.00
2019-03-27T01:00:33.429Z,0.00
2019-03-27T01:01:33.281Z,0.00
2019-03-27T01:02:33.193Z,0.00
2019-03-27T01:03:33.105Z,0.00
2019-03-27T01:04:33.089Z,0.00
2019-03-27T01:05:32.946Z,0.00
2019-03-27T01:06:32.910Z,0.00
2019-03-27T01:07:32.821Z,0.00
2019-03-27T01:08:32.763Z,0.00
2019-03-27T01:09:32.625Z,0.00
2019-03-27T01:10:32.589Z,0.00
2019-03-27T01:11:32.525Z,0.00
2019-03-27T01:12:32.377Z,0.00
2019-03-27T01:13:32.383Z,0.00
2019-03-27T01:14:32.241Z,0.00
2019-03-27T01:15:39.858Z,0.00
2019-03-27T01:16:32.097Z,0.00
2019-03-27T01:17:32.045Z,0.00
2019-03-27T01:18:31.956Z,0.00
2019-03-27T01:19:31.815Z,0.00
2019-03-27T01:20:31.734Z,0.00
2019-03-27T01:21:31.733Z,0.00
2019-03-27T01:22:31.569Z,0.00
2019-03-27T01:23:31.541Z,0.00
2019-03-27T01:24:31.408Z,0.00
2019-03-27T01:25:31.326Z,0.00
2019-03-27T01:26:31.354Z,0.00
2019-03-27T01:27:31.162Z,0.00
2019-03-27T01:28:31.079Z,0.00
2019-03-27T01:29:31.055Z,0.00
2019-03-27T01:30:30.963Z,0.00
2019-03-27T01:31:30.899Z,0.00
2019-03-27T01:32:30.760Z,0.00
2019-03-27T01:33:30.731Z,0.00
2019-03-27T01:34:30.635Z,0.00
2019-03-27T01:35:30.582Z,0.00
2019-03-27T01:36:30.430Z,0.00
2019-03-27T01:37:30.351Z,0.00
2019-03-27T01:38:30.319Z,0.00
2019-03-27T01:39:30.184Z,0.00
2019-03-27T01:40:30.107Z,0.00
2019-03-27T01:41:30.031Z,0.00
2019-03-27T01:42:29.983Z,0.00
2019-03-27T01:43:29.863Z,0.00
2019-03-27T01:44:29.841Z,0.00
2019-03-27T01:45:29.706Z,0.00
2019-03-27T01:46:29.663Z,0.00
2019-03-27T01:47:29.576Z,0.00
2019-03-27T01:48:29.453Z,0.00
2019-03-27T01:49:29.391Z,0.00
2019-03-27T01:50:29.364Z,0.00
2019-03-27T01:51:29.221Z,0.00
2019-03-27T01:52:29.130Z,0.00
2019-03-27T01:53:29.052Z,0.00
2019-03-27T01:54:28.970Z,0.00
2019-03-27T01:55:28.907Z,0.00
2019-03-27T01:56:28.825Z,0.00
2019-03-27T01:57:28.773Z,0.00
2019-03-27T01:58:28.712Z,0.00
2019-03-27T01:59:28.562Z,0.00
2019-03-27T02:00:28.494Z,0.00
2019-03-27T02:01:28.400Z,0.00
2019-03-27T02:02:28.378Z,0.00
2019-03-27T02:03:28.294Z,0.00
2019-03-27T02:04:28.215Z,0.00
2019-03-27T02:05:28.114Z,0.00
2019-03-27T02:06:27.993Z,0.00
2019-03-27T02:07:27.979Z,0.00
2019-03-27T02:08:27.859Z,0.00
2019-03-27T02:09:27.749Z,0.00
2019-03-27T02:10:27.713Z,0.00
2019-03-27T02:11:27.589Z,0.00
2019-03-27T02:12:27.532Z,0.00
2019-03-27T02:13:27.429Z,0.00
2019-03-27T02:14:27.342Z,0.00
2019-03-27T02:15:27.316Z,0.00
2019-03-27T02:16:27.190Z,0.00
2019-03-27T02:17:27.129Z,0.00
2019-03-27T02:18:27.110Z,0.00
2019-03-27T02:19:26.943Z,0.00
2019-03-27T02:20:26.873Z,0.00
2019-03-27T02:21:26.780Z,0.00
2019-03-27T02:22:26.690Z,0.00
2019-03-27T02:23:26.663Z,0.00
2019-03-27T02:24:26.539Z,0.00
2019-03-27T02:25:26.451Z,0.00
2019-03-27T02:26:26.365Z,0.00
2019-03-27T02:27:26.321Z,0.00
2019-03-27T02:28:26.206Z,0.00
2019-03-27T02:29:26.130Z,0.00
2019-03-27T02:30:26.105Z,0.00
2019-03-27T02:31:25.962Z,0.00
2019-03-27T02:32:25.880Z,0.00
2019-03-27T02:33:25.799Z,0.00
2019-03-27T02:34:25.719Z,0.00
2019-03-27T02:35:25.637Z,0.00
2019-03-27T02:36:25.611Z,0.00
2019-03-27T02:37:25.473Z,0.00
2019-03-27T02:38:25.399Z,0.00
2019-03-27T02:39:25.331Z,0.00
2019-03-27T02:40:25.227Z,0.00
2019-03-27T02:41:25.144Z,0.00
2019-03-27T02:42:25.083Z,0.00
2019-03-27T02:43:24.986Z,0.00
2019-03-27T02:44:24.977Z,0.00
2019-03-27T02:45:24.832Z,0.00
2019-03-27T02:46:25.671Z,0.00
2019-03-27T02:47:24.665Z,0.00
2019-03-27T02:48:24.590Z,0.00
2019-03-27T02:49:24.557Z,0.00
2019-03-27T02:50:24.419Z,0.00
2019-03-27T02:51:24.352Z,0.00
2019-03-27T02:52:24.252Z,0.00
2019-03-27T02:53:24.177Z,0.00
2019-03-27T02:54:24.090Z,0.00
2019-03-27T02:55:24.063Z,0.00
2019-03-27T02:56:23.933Z,0.00
2019-03-27T02:57:23.850Z,0.00
2019-03-27T02:58:23.766Z,0.00
2019-03-27T02:59:23.701Z,0.00
2019-03-27T03:00:23.657Z,0.00
2019-03-27T03:01:23.541Z,0.00
2019-03-27T03:02:23.465Z,0.00
2019-03-27T03:03:23.364Z,0.00
2019-03-27T03:04:23.284Z,0.00
2019-03-27T03:05:23.265Z,0.00
2019-03-27T03:06:23.123Z,0.00
2019-03-27T03:07:23.032Z,0.00
2019-03-27T03:08:23.007Z,0.00
2019-03-27T03:09:22.876Z,0.00
2019-03-27T03:10:22.886Z,0.00
2019-03-27T03:11:22.716Z,0.00
2019-03-27T03:12:22.634Z,0.00
2019-03-27T03:13:22.604Z,0.00
2019-03-27T03:14:22.515Z,0.00
2019-03-27T03:15:22.388Z,0.00
2019-03-27T03:16:22.365Z,0.00
2019-03-27T03:17:22.287Z,0.00
2019-03-27T03:18:22.186Z,0.00
2019-03-27T03:19:22.059Z,0.00
2019-03-27T03:20:21.985Z,0.00
2019-03-27T03:21:21.917Z,0.00
2019-03-27T03:22:21.816Z,0.00
2019-03-27T03:23:21.739Z,0.00
2019-03-27T03:24:21.701Z,0.00
2019-03-27T03:25:21.622Z,0.00
2019-03-27T03:26:21.499Z,0.00
2019-03-27T03:27:21.413Z,0.00
2019-03-27T03:28:21.350Z,0.00
2019-03-27T03:29:21.275Z,0.00
2019-03-27T03:30:21.164Z,0.00
2019-03-27T03:31:21.148Z,0.00
2019-03-27T03:32:21.060Z,0.00
2019-03-27T03:33:20.923Z,0.00
2019-03-27T03:34:20.860Z,0.00
2019-03-27T03:35:20.803Z,0.00
2019-03-27T03:36:20.690Z,0.00
2019-03-27T03:37:20.650Z,0.00
2019-03-27T03:38:20.555Z,0.00
2019-03-27T03:39:20.475Z,0.00
2019-03-27T03:40:20.398Z,0.00
2019-03-27T03:41:20.275Z,0.00
2019-03-27T03:42:20.223Z,0.00
2019-03-27T03:43:20.110Z,0.00
2019-03-27T03:44:20.022Z,0.00
2019-03-27T03:45:19.968Z,0.00
2019-03-27T03:46:19.913Z,0.00
2019-03-27T03:47:19.834Z,0.00
2019-03-27T03:48:19.715Z,0.00
2019-03-27T03:49:19.629Z,0.00
2019-03-27T03:50:19.584Z,0.00
2019-03-27T03:51:19.484Z,0.00
2019-03-27T03:52:19.428Z,0.00
2019-03-27T03:53:19.341Z,0.00
2019-03-27T03:54:19.242Z,0.00
2019-03-27T03:55:19.145Z,0.00
2019-03-27T03:56:19.054Z,0.00
2019-03-27T03:57:18.969Z,0.00
2019-03-27T03:58:18.892Z,0.00
2019-03-27T03:59:18.807Z,0.00
2019-03-27T04:00:18.741Z,0.00
2019-03-27T04:01:18.650Z,0.00
2019-03-27T04:02:18.553Z,0.00
2019-03-27T04:03:18.517Z,0.00
2019-03-27T04:04:18.404Z,0.00
2019-03-27T04:05:18.320Z,0.00
2019-03-27T04:06:18.239Z,0.00
2019-03-27T04:07:18.209Z,0.00
2019-03-27T04:08:18.076Z,0.00
2019-03-27T04:09:18.026Z,0.00
2019-03-27T04:10:17.911Z,0.00
2019-03-27T04:11:17.889Z,0.00
2019-03-27T04:12:19.751Z,0.00
2019-03-27T04:13:17.697Z,0.00
2019-03-27T04:14:17.647Z,0.00
2019-03-27T04:15:17.556Z,0.00
2019-03-27T04:16:17.478Z,0.00
2019-03-27T04:17:18.074Z,0.00
2019-03-27T04:18:17.264Z,0.00
2019-03-27T04:19:17.182Z,0.00
2019-03-27T04:20:17.128Z,0.00
2019-03-27T04:21:17.023Z,0.00
2019-03-27T04:22:16.935Z,0.00
2019-03-27T04:23:16.850Z,0.00
2019-03-27T04:24:16.811Z,0.00
2019-03-27T04:25:16.690Z,0.00
2019-03-27T04:26:16.652Z,0.00
2019-03-27T04:27:16.575Z,0.00
2019-03-27T04:28:16.486Z,0.00
2019-03-27T04:29:16.410Z,0.00
2019-03-27T04:30:16.339Z,0.00
2019-03-27T04:31:16.248Z,0.00
2019-03-27T04:32:16.114Z,0.00
2019-03-27T04:33:16.096Z,0.00
2019-03-27T04:34:15.958Z,0.00
2019-03-27T04:35:15.869Z,0.00
2019-03-27T04:36:15.791Z,0.00
2019-03-27T04:37:15.706Z,0.00
2019-03-27T04:38:15.624Z,0.00
2019-03-27T04:39:15.553Z,0.00
2019-03-27T04:40:15.465Z,0.00
2019-03-27T04:41:15.384Z,0.00
2019-03-27T04:42:15.365Z,0.00
2019-03-27T04:43:15.218Z,0.00
2019-03-27T04:44:15.145Z,0.00
2019-03-27T04:45:15.049Z,0.00
2019-03-27T04:46:14.998Z,0.00
2019-03-27T04:47:14.906Z,0.00
2019-03-27T04:48:14.840Z,0.00
2019-03-27T04:49:14.731Z,0.00
2019-03-27T04:50:14.696Z,0.00
2019-03-27T04:51:14.610Z,0.00
2019-03-27T04:52:14.542Z,0.00
2019-03-27T04:53:14.457Z,0.00
2019-03-27T04:54:14.342Z,0.00
2019-03-27T04:55:14.286Z,0.00
2019-03-27T04:56:14.155Z,0.00
2019-03-27T04:57:14.156Z,0.00
2019-03-27T04:58:14.006Z,0.00
2019-03-27T04:59:13.915Z,0.00
2019-03-27T05:00:13.883Z,0.00
2019-03-27T05:01:13.751Z,0.00
2019-03-27T05:02:13.671Z,0.00
2019-03-27T05:03:13.626Z,0.00
2019-03-27T05:04:13.514Z,0.00
2019-03-27T05:05:13.422Z,0.00
2019-03-27T05:06:13.346Z,0.00
2019-03-27T05:07:13.850Z,0.00
2019-03-27T05:08:13.187Z,0.00
2019-03-27T05:09:13.152Z,0.00
2019-03-27T05:10:13.065Z,0.00
2019-03-27T05:11:13.044Z,0.00
2019-03-27T05:12:12.863Z,0.00
2019-03-27T05:13:12.816Z,0.00
2019-03-27T05:14:12.727Z,0.00
2019-03-27T05:15:12.610Z,0.00
2019-03-27T05:16:12.556Z,0.00
2019-03-27T05:17:12.489Z,0.00
2019-03-27T05:18:12.427Z,0.00
2019-03-27T05:19:12.329Z,0.00
2019-03-27T05:20:12.272Z,0.00
2019-03-27T05:21:12.171Z,0.00
2019-03-27T05:22:12.038Z,0.00
2019-03-27T05:23:11.953Z,0.00
2019-03-27T05:24:11.873Z,0.00
2019-03-27T05:25:11.855Z,0.00
2019-03-27T05:26:11.708Z,0.00
2019-03-27T05:27:11.628Z,0.00
2019-03-27T05:28:11.553Z,0.00
2019-03-27T05:29:11.473Z,0.00
2019-03-27T05:30:11.457Z,0.00
2019-03-27T05:31:11.307Z,0.00
2019-03-27T05:32:11.220Z,0.00
2019-03-27T05:33:11.345Z,0.00
2019-03-27T05:34:11.082Z,0.00
2019-03-27T05:36:36.026Z,0.00
2019-03-27T05:37:36.109Z,0.00
2019-03-27T05:38:35.383Z,0.00
2019-03-27T05:39:35.628Z,0.00
2019-03-27T05:40:35.333Z,0.00
2019-03-27T05:41:36.021Z,0.00
2019-03-27T05:42:35.403Z,0.00
2019-03-27T05:43:35.512Z,5.63
2019-03-27T05:44:32.872Z,5.63
2019-03-27T05:45:36.082Z,5.63
2019-03-27T05:46:35.044Z,5.63
2019-03-27T05:47:34.968Z,5.63
2019-03-27T05:48:35.510Z,5.63
2019-03-27T05:49:34.546Z,5.63
2019-03-27T05:50:35.144Z,5.63
2019-03-27T05:52:35.052Z,5.63
2019-03-27T05:53:32.129Z,5.63
2019-03-27T05:54:34.921Z,5.63
2019-03-27T05:55:35.147Z,5.63
2019-03-27T05:56:34.359Z,5.63
2019-03-27T05:57:31.506Z,5.63
2019-03-27T05:58:31.713Z,5.63
2019-03-27T05:59:32.211Z,5.63
2019-03-27T06:00:33.737Z,11.25
2019-03-27T06:01:31.427Z,11.25
2019-03-27T06:02:34.022Z,11.25
2019-03-27T06:03:33.521Z,11.25
2019-03-27T06:04:33.851Z,11.25
2019-03-27T06:05:33.069Z,11.25
2019-03-27T06:06:32.520Z,11.25
2019-03-27T06:07:32.897Z,11.25
2019-03-27T06:08:33.322Z,11.25
2019-03-27T06:09:33.361Z,5.63
2019-03-27T06:10:33.157Z,11.25
2019-03-27T06:11:32.415Z,11.25
2019-03-27T06:12:32.977Z,11.25
2019-03-27T06:13:32.571Z,11.25
2019-03-27T06:14:32.558Z,11.25
2019-03-27T06:15:32.449Z,11.25
2019-03-27T06:16:29.975Z,11.25
2019-03-27T06:17:29.824Z,11.25
2019-03-27T06:18:29.749Z,11.25
2019-03-27T06:19:29.630Z,11.25
2019-03-27T06:20:29.567Z,11.25
2019-03-27T06:21:29.506Z,11.25
2019-03-27T06:22:29.365Z,11.25
2019-03-27T06:23:29.286Z,11.25
2019-03-27T06:24:29.199Z,11.25
2019-03-27T06:25:29.118Z,11.25
2019-03-27T06:26:29.032Z,11.25
2019-03-27T06:27:29.002Z,11.25
2019-03-27T06:28:28.919Z,16.88
2019-03-27T06:29:28.827Z,16.88
2019-03-27T06:30:28.758Z,16.88
2019-03-27T06:31:28.627Z,16.88
2019-03-27T06:32:28.637Z,16.88
2019-03-27T06:33:28.477Z,16.88
2019-03-27T06:34:28.380Z,16.88
2019-03-27T06:35:28.327Z,16.88
2019-03-27T06:36:28.219Z,16.88
2019-03-27T06:37:28.192Z,16.88
2019-03-27T06:38:28.108Z,16.88
2019-03-27T06:39:27.982Z,16.88
2019-03-27T06:40:27.903Z,16.88
2019-03-27T06:41:27.819Z,16.88
2019-03-27T06:42:27.734Z,22.50
2019-03-27T06:43:27.657Z,22.50
2019-03-27T06:44:27.628Z,22.50
2019-03-27T06:45:27.571Z,22.50
2019-03-27T06:46:27.408Z,22.50
2019-03-27T06:47:27.362Z,22.50
2019-03-27T06:48:27.246Z,22.50
2019-03-27T06:49:27.209Z,22.50
2019-03-27T06:50:27.081Z,22.50
2019-03-27T06:51:39.483Z,22.50
2019-03-27T06:52:26.958Z,22.50
2019-03-27T06:53:26.838Z,22.50
2019-03-27T06:54:26.766Z,22.50
2019-03-27T06:55:26.731Z,22.50
2019-03-27T06:56:26.599Z,22.50
2019-03-27T06:57:26.518Z,22.50
2019-03-27T06:58:26.478Z,22.50
2019-03-27T06:59:26.353Z,22.50
2019-03-27T07:00:26.272Z,22.50
2019-03-27T07:01:26.193Z,28.13
2019-03-27T07:02:28.869Z,28.13
2019-03-27T07:03:26.071Z,28.13
2019-03-27T07:04:25.951Z,28.13
2019-03-27T07:05:25.877Z,28.13
2019-03-27T07:06:25.785Z,28.13
2019-03-27T07:07:25.707Z,28.13
2019-03-27T07:08:25.619Z,28.13
2019-03-27T07:09:25.601Z,33.75
2019-03-27T07:10:25.507Z,33.75
2019-03-27T07:11:25.377Z,33.75
2019-03-27T07:12:25.300Z,39.38
2019-03-27T07:13:25.212Z,39.38
2019-03-27T07:14:25.134Z,39.38
2019-03-27T07:15:25.108Z,45.00
2019-03-27T07:16:24.973Z,56.25
2019-03-27T07:17:24.943Z,45.00
2019-03-27T07:18:24.817Z,45.00
2019-03-27T07:19:24.734Z,50.63
2019-03-27T07:20:24.658Z,50.63
2019-03-27T07:21:24.567Z,50.63
2019-03-27T07:22:24.489Z,50.63
2019-03-27T07:23:24.405Z,50.63
2019-03-27T07:24:24.370Z,50.63
2019-03-27T07:25:24.250Z,50.63
2019-03-27T07:26:24.199Z,50.63
2019-03-27T07:27:24.085Z,56.25
2019-03-27T07:28:24.060Z,84.38
2019-03-27T07:29:23.925Z,129.38
2019-03-27T07:30:23.839Z,135.00
2019-03-27T07:31:23.756Z,118.13
2019-03-27T07:32:23.711Z,67.50
2019-03-27T07:33:23.607Z,61.88
2019-03-27T07:34:23.580Z,61.88
2019-03-27T07:35:23.495Z,61.88
2019-03-27T07:36:23.413Z,56.25
2019-03-27T07:37:23.277Z,56.25
2019-03-27T07:38:23.199Z,50.63
2019-03-27T07:39:23.165Z,50.63
2019-03-27T07:40:23.081Z,45.00
2019-03-27T07:41:23.021Z,45.00
2019-03-27T07:42:22.871Z,50.63
2019-03-27T07:43:22.841Z,50.63
2019-03-27T07:44:22.716Z,50.63
2019-03-27T07:45:22.683Z,50.63
2019-03-27T07:46:22.551Z,50.63
2019-03-27T07:47:22.469Z,50.63
2019-03-27T07:48:22.387Z,50.63
2019-03-27T07:49:22.352Z,50.63
2019-03-27T07:50:22.263Z,50.63
2019-03-27T07:51:22.202Z,50.63
2019-03-27T07:52:22.082Z,56.25
2019-03-27T07:53:22.610Z,61.88
2019-03-27T07:54:21.989Z,67.50
2019-03-27T07:55:21.887Z,73.13
2019-03-27T07:56:21.740Z,73.13
2019-03-27T07:57:21.719Z,78.75
2019-03-27T07:58:21.580Z,73.13
2019-03-27T07:59:21.502Z,73.13
2019-03-27T08:00:21.420Z,73.13
2019-03-27T08:01:21.343Z,73.13
2019-03-27T08:02:21.309Z,73.13
2019-03-27T08:03:21.223Z,95.63
2019-03-27T08:04:21.099Z,95.63
2019-03-27T08:05:21.025Z,78.75
2019-03-27T08:06:20.986Z,90.00
2019-03-27T08:07:26.806Z,78.75
2019-03-27T08:08:20.791Z,78.75
2019-03-27T08:09:23.093Z,73.13
2019-03-27T08:10:20.617Z,90.00
2019-03-27T08:11:20.643Z,67.50
2019-03-27T08:12:20.463Z,95.63
2019-03-27T08:13:20.390Z,129.38
2019-03-27T08:14:20.303Z,78.75
2019-03-27T08:15:20.238Z,78.75
2019-03-27T08:16:20.175Z,78.75
2019-03-27T08:17:20.127Z,78.75
2019-03-27T08:18:19.974Z,78.75
2019-03-27T08:19:19.897Z,95.63
2019-03-27T08:20:19.828Z,118.13
2019-03-27T08:21:19.781Z,146.25
2019-03-27T08:22:19.704Z,146.25
2019-03-27T08:23:19.598Z,230.63
2019-03-27T08:24:19.520Z,208.13
2019-03-27T08:25:19.463Z,208.13
2019-03-27T08:26:19.346Z,157.50
2019-03-27T08:27:19.267Z,146.25
2019-03-27T08:28:19.184Z,140.63
2019-03-27T08:29:19.101Z,129.38
2019-03-27T08:30:19.022Z,129.38
2019-03-27T08:31:18.988Z,123.75
2019-03-27T08:32:18.860Z,146.25
2019-03-27T08:33:18.779Z,112.50
2019-03-27T08:34:18.710Z,129.38
2019-03-27T08:35:18.621Z,151.88
2019-03-27T08:36:18.594Z,95.63
2019-03-27T08:37:18.486Z,123.75
2019-03-27T08:38:18.382Z,135.00
2019-03-27T08:39:18.305Z,106.88
2019-03-27T08:40:18.220Z,106.88
2019-03-27T08:41:18.221Z,129.38
2019-03-27T08:42:18.101Z,129.38
2019-03-27T08:43:21.891Z,118.13
2019-03-27T08:44:17.908Z,135.00
2019-03-27T08:45:17.869Z,123.75
2019-03-27T08:46:17.802Z,123.75
2019-03-27T08:47:17.759Z,151.88
2019-03-27T08:48:17.591Z,151.88
2019-03-27T08:49:22.181Z,140.63
2019-03-27T08:50:17.471Z,174.38
2019-03-27T08:51:17.389Z,168.75
2019-03-27T08:52:17.275Z,208.13
2019-03-27T08:53:17.201Z,185.63
2019-03-27T08:54:17.174Z,191.25
2019-03-27T08:55:17.108Z,236.25
2019-03-27T08:56:16.954Z,213.75
2019-03-27T08:57:16.893Z,247.50
2019-03-27T08:58:16.836Z,270.00
2019-03-27T08:59:16.765Z,270.00
2019-03-27T09:00:16.645Z,258.75
2019-03-27T09:01:16.572Z,202.50
2019-03-27T09:02:16.555Z,61.88
2019-03-27T09:03:16.473Z,253.13
2019-03-27T09:04:16.327Z,225.00
2019-03-27T09:05:16.274Z,56.25
2019-03-27T09:06:16.207Z,264.38
2019-03-27T09:07:16.136Z,281.25
2019-03-27T09:08:16.051Z,275.63
2019-03-27T09:09:15.934Z,270.00
2019-03-27T09:10:15.873Z,258.75
2019-03-27T09:11:15.776Z,253.13
2019-03-27T09:12:15.703Z,258.75
2019-03-27T09:13:15.655Z,258.75
2019-03-27T09:14:15.547Z,264.38
2019-03-27T09:15:15.471Z,275.63
2019-03-27T09:16:15.424Z,270.00
2019-03-27T09:17:15.306Z,270.00
2019-03-27T09:18:16.908Z,264.38
2019-03-27T09:19:15.201Z,264.38
2019-03-27T09:20:15.072Z,270.00
2019-03-27T09:21:15.017Z,275.63
2019-03-27T09:22:14.920Z,185.63
2019-03-27T09:23:14.887Z,281.25
2019-03-27T09:24:14.821Z,281.25
2019-03-27T09:25:14.700Z,264.38
2019-03-27T09:26:14.607Z,225.00
2019-03-27T09:27:14.525Z,168.75
2019-03-27T09:28:14.445Z,112.50
2019-03-27T09:29:14.372Z,84.38
2019-03-27T09:30:14.328Z,174.38
2019-03-27T09:31:14.218Z,202.50
2019-03-27T09:32:14.141Z,118.13
2019-03-27T09:33:14.088Z,185.63
2019-03-27T09:34:14.028Z,185.63
2019-03-27T09:35:13.902Z,258.75
2019-03-27T09:36:13.829Z,270.00
2019-03-27T09:37:13.791Z,281.25
2019-03-27T09:38:13.693Z,270.00
2019-03-27T09:39:13.658Z,241.88
2019-03-27T09:40:13.520Z,106.88
2019-03-27T09:41:13.496Z,163.13
2019-03-27T09:42:13.370Z,101.25
2019-03-27T09:43:13.282Z,84.38
2019-03-27T09:44:13.213Z,78.75
2019-03-27T09:45:13.157Z,78.75
2019-03-27T09:46:13.067Z,84.38
2019-03-27T09:47:13.030Z,90.00
2019-03-27T09:48:12.961Z,84.38
2019-03-27T09:49:12.850Z,90.00
2019-03-27T09:50:12.748Z,95.63
2019-03-27T09:51:12.670Z,241.88
2019-03-27T09:52:12.641Z,163.13
2019-03-27T09:53:12.514Z,78.75
2019-03-27T09:54:12.483Z,73.13
2019-03-27T09:55:12.385Z,61.88
2019-03-27T09:56:18.872Z,56.25
2019-03-27T09:57:12.224Z,50.63
2019-03-27T09:58:12.239Z,45.00
2019-03-27T09:59:12.096Z,45.00
2019-03-27T10:00:12.025Z,39.38
2019-03-27T10:01:11.953Z,39.38
2019-03-27T10:02:11.875Z,45.00
2019-03-27T10:03:11.737Z,50.63
2019-03-27T10:04:11.660Z,168.75
2019-03-27T10:05:11.592Z,61.88
2019-03-27T10:06:11.505Z,50.63
2019-03-27T10:07:11.422Z,174.38
2019-03-27T10:08:11.348Z,258.75
2019-03-27T10:09:11.318Z,258.75
2019-03-27T10:10:11.226Z,264.38
2019-03-27T10:11:11.189Z,264.38
2019-03-27T10:12:11.043Z,264.38
2019-03-27T10:13:11.025Z,264.38
2019-03-27T10:14:10.943Z,264.38
2019-03-27T10:15:10.876Z,264.38
2019-03-27T10:16:10.822Z,247.50
2019-03-27T10:17:10.685Z,241.88
2019-03-27T10:18:10.625Z,236.25
2019-03-27T10:19:10.546Z,270.00
2019-03-27T10:20:13.602Z,275.63
2019-03-27T10:21:10.343Z,275.63
2019-03-27T10:22:10.321Z,286.88
2019-03-27T10:23:10.182Z,286.88
2019-03-27T10:24:10.154Z,275.63
2019-03-27T10:25:10.099Z,292.50
2019-03-27T10:26:09.963Z,292.50
2019-03-27T10:27:09.881Z,286.88
2019-03-27T10:28:09.870Z,286.88
2019-03-27T10:29:09.715Z,292.50
2019-03-27T10:30:09.656Z,292.50
2019-03-27T10:31:09.568Z,275.63
2019-03-27T10:32:09.489Z,275.63
2019-03-27T10:33:09.456Z,286.88
2019-03-27T10:34:09.385Z,309.38
2019-03-27T10:35:09.252Z,275.63
2019-03-27T10:36:09.227Z,275.63
2019-03-27T10:37:09.105Z,230.63
2019-03-27T10:38:09.026Z,208.13
2019-03-27T10:39:09.029Z,146.25
2019-03-27T10:40:08.872Z,118.13
2019-03-27T10:41:08.855Z,118.13
2019-03-27T10:42:08.775Z,118.13
2019-03-27T10:43:08.655Z,118.13
2019-03-27T10:44:08.568Z,151.88
2019-03-27T10:45:08.491Z,123.75
2019-03-27T10:46:08.427Z,129.38
2019-03-27T10:47:08.343Z,129.38
2019-03-27T10:48:08.368Z,146.25
2019-03-27T10:49:08.192Z,157.50
2019-03-27T10:50:17.513Z,168.75
2019-03-27T10:51:08.091Z,163.13
2019-03-27T10:52:07.949Z,151.88
2019-03-27T10:53:07.884Z,118.13
2019-03-27T10:54:07.797Z,118.13
2019-03-27T10:55:07.724Z,129.38
2019-03-27T10:56:07.650Z,140.63
2019-03-27T10:57:07.627Z,135.00
2019-03-27T10:58:07.498Z,123.75
2019-03-27T10:59:07.482Z,118.13
2019-03-27T11:00:07.337Z,106.88
2019-03-27T11:01:07.603Z,101.25
2019-03-27T11:02:07.193Z,90.00
2019-03-27T11:03:07.139Z,84.38
2019-03-27T11:04:07.077Z,84.38
2019-03-27T11:05:07.004Z,78.75
2019-03-27T11:06:06.901Z,78.75
2019-03-27T11:07:06.806Z,78.75
2019-03-27T11:08:06.796Z,78.75
2019-03-27T11:09:06.648Z,78.75
2019-03-27T11:10:06.582Z,84.38
2019-03-27T11:11:06.499Z,84.38
2019-03-27T11:12:06.426Z,84.38
2019-03-27T11:13:06.344Z,78.75
2019-03-27T11:14:06.328Z,78.75
2019-03-27T11:15:06.209Z,78.75
2019-03-27T11:16:06.122Z,78.75
2019-03-27T11:17:06.076Z,78.75
2019-03-27T11:18:05.976Z,78.75
2019-03-27T11:19:05.903Z,78.75
2019-03-27T11:20:05.869Z,84.38
2019-03-27T11:21:05.748Z,84.38
2019-03-27T11:22:05.653Z,84.38
2019-03-27T11:23:05.579Z,84.38
2019-03-27T11:24:05.498Z,90.00
2019-03-27T11:25:05.430Z,90.00
2019-03-27T11:26:05.368Z,90.00
2019-03-27T11:27:05.321Z,90.00
2019-03-27T11:28:05.190Z,90.00
2019-03-27T11:29:05.142Z,90.00
2019-03-27T11:30:05.094Z,95.63
2019-03-27T11:31:04.960Z,95.63
2019-03-27T11:32:04.916Z,95.63
2019-03-27T11:33:04.811Z,95.63
2019-03-27T11:34:04.724Z,95.63
2019-03-27T11:35:04.710Z,95.63
2019-03-27T11:36:04.569Z,95.63
2019-03-27T11:37:04.550Z,101.25
2019-03-27T11:38:04.438Z,101.25
2019-03-27T11:39:04.342Z,101.25
2019-03-27T11:40:04.264Z,101.25
2019-03-27T11:41:04.190Z,95.63
2019-03-27T11:42:04.114Z,101.25
2019-03-27T11:43:04.037Z,101.25
2019-03-27T11:44:04.008Z,101.25
2019-03-27T11:45:03.888Z,101.25
2019-03-27T11:46:03.857Z,101.25
2019-03-27T11:47:03.720Z,101.25
2019-03-27T11:48:03.687Z,101.25
2019-03-27T11:49:03.603Z,101.25
2019-03-27T11:50:03.498Z,101.25
2019-03-27T11:51:03.501Z,101.25
2019-03-27T11:52:03.400Z,101.25
2019-03-27T11:53:03.257Z,101.25
2019-03-27T11:54:03.188Z,101.25
2019-03-27T11:55:03.147Z,101.25
2019-03-27T11:56:03.476Z,101.25
2019-03-27T11:57:02.947Z,101.25
2019-03-27T11:58:02.874Z,101.25
2019-03-27T11:59:02.825Z,101.25
2019-03-27T12:00:02.715Z,101.25
2019-03-27T12:01:02.714Z,95.63
2019-03-27T12:02:02.564Z,90.00
2019-03-27T12:03:02.489Z,90.00
2019-03-27T12:04:02.473Z,84.38
2019-03-27T12:05:02.335Z,84.38
2019-03-27T12:06:02.309Z,84.38
2019-03-27T12:07:02.233Z,84.38
2019-03-27T12:08:02.167Z,84.38
2019-03-27T12:09:02.066Z,90.00
2019-03-27T12:10:01.959Z,90.00
2019-03-27T12:11:01.931Z,90.00
2019-03-27T12:12:01.787Z,95.63
2019-03-27T12:13:01.708Z,95.63
2019-03-27T12:14:01.642Z,95.63
2019-03-27T12:15:01.598Z,95.63
2019-03-27T12:16:01.481Z,101.25
2019-03-27T12:17:01.404Z,101.25
2019-03-27T12:18:01.356Z,95.63
2019-03-27T12:19:01.245Z,95.63
2019-03-27T12:20:01.172Z,95.63
2019-03-27T12:21:01.092Z,95.63
2019-03-27T12:22:01.075Z,95.63
2019-03-27T12:23:00.960Z,95.63
2019-03-27T12:24:00.859Z,90.00
2019-03-27T12:25:00.826Z,90.00
2019-03-27T12:26:00.706Z,90.00
2019-03-27T12:27:00.638Z,90.00
2019-03-27T12:28:00.576Z,90.00
2019-03-27T12:29:00.478Z,90.00
2019-03-27T12:30:00.406Z,90.00
2019-03-27T12:31:00.317Z,90.00
2019-03-27T12:32:00.276Z,90.00
2019-03-27T12:33:00.168Z,90.00
2019-03-27T12:34:00.127Z,90.00
2019-03-27T12:35:00.012Z,90.00
2019-03-27T12:35:59.999Z,90.00
2019-03-27T12:36:59.888Z,90.00
2019-03-27T12:37:59.794Z,90.00
2019-03-27T12:38:59.749Z,95.63
2019-03-27T12:39:59.622Z,95.63
2019-03-27T12:40:59.547Z,95.63
2019-03-27T12:41:59.484Z,95.63
2019-03-27T12:42:59.392Z,95.63
2019-03-27T12:44:02.410Z,95.63
2019-03-27T12:45:01.759Z,95.63
2019-03-27T12:45:59.190Z,101.25
2019-03-27T12:46:59.134Z,101.25
2019-03-27T12:47:59.000Z,101.25
2019-03-27T12:48:59.009Z,95.63
2019-03-27T12:49:58.898Z,95.63
2019-03-27T12:51:11.735Z,95.63
2019-03-27T12:51:58.690Z,95.63
2019-03-27T12:52:58.622Z,95.63
2019-03-27T12:53:58.540Z,95.63
2019-03-27T12:54:58.464Z,95.63
2019-03-27T12:55:58.396Z,95.63
2019-03-27T12:56:58.316Z,101.25
2019-03-27T12:57:58.288Z,101.25
2019-03-27T12:58:58.184Z,101.25
2019-03-27T12:59:58.074Z,101.25
2019-03-27T13:00:58.001Z,101.25
2019-03-27T13:01:57.921Z,101.25
2019-03-27T13:02:57.881Z,101.25
2019-03-27T13:03:57.814Z,106.88
2019-03-27T13:04:57.746Z,106.88
2019-03-27T13:05:57.655Z,112.50
2019-03-27T13:06:57.565Z,118.13
2019-03-27T13:07:57.453Z,112.50
2019-03-27T13:08:57.381Z,112.50
2019-03-27T13:09:57.316Z,106.88
2019-03-27T13:10:57.233Z,106.88
2019-03-27T13:11:57.169Z,106.88
2019-03-27T13:12:57.123Z,106.88
2019-03-27T13:13:56.997Z,112.50
2019-03-27T13:14:56.921Z,118.13
2019-03-27T13:15:56.864Z,112.50